Time;durP1;ratioP1;P1;durP2;ratioP2;P2;SDS_P1;SDS_P2;PMS_P1;PMS_P2;Temp;Humidity;BMP_temperature;BMP_pressure;BME280_temperature;BME280_humidity;BME280_pressure;Samples;Min_cycle;Max_cycle;Signal;HPM_P1;HPM_P2
2022/10/11 00:00:15;;;;;;;10.20;6.90;;;;;;;9.22;100.00;99698.63;100559;1341;24468;-35
2022/10/11 00:02:40;;;;;;;8.30;5.90;;;;;;;9.22;100.00;99699.52;100567;1333;22737;-36
2022/10/11 00:05:07;;;;;;;8.40;6.10;;;;;;;9.23;100.00;99697.13;100532;1326;22551;-33
2022/10/11 00:07:32;;;;;;;10.60;8.10;;;;;;;9.23;100.00;99696.52;100499;1333;23038;-32
2022/10/11 00:09:58;;;;;;;17.30;10.30;;;;;;;9.23;100.00;99697.11;100575;1327;24498;-35
2022/10/11 00:12:23;;;;;;;9.50;6.30;;;;;;;9.23;100.00;99699.36;100449;1340;22751;-32
2022/10/11 00:14:49;;;;;;;13.40;7.80;;;;;;;9.25;100.00;99703.63;100503;1341;24903;-36
2022/10/11 00:17:14;;;;;;;13.40;8.10;;;;;;;9.26;100.00;99701.34;100567;1333;22508;-33
2022/10/11 00:19:40;;;;;;;14.60;7.30;;;;;;;9.29;100.00;99703.52;100549;1341;24343;-31
2022/10/11 00:22:05;;;;;;;8.80;6.30;;;;;;;9.31;100.00;99703.65;100568;1341;24474;-35
2022/10/11 00:24:31;;;;;;;23.20;11.90;;;;;;;9.33;100.00;99706.08;100560;1339;24809;-32
2022/10/11 00:26:57;;;;;;;6.00;4.70;;;;;;;9.37;100.00;99705.69;100658;1339;23267;-35
2022/10/11 00:29:22;;;;;;;9.10;6.20;;;;;;;9.44;100.00;99706.11;100527;1333;24469;-36
2022/10/11 00:31:48;;;;;;;9.00;5.90;;;;;;;9.50;100.00;99710.52;100493;1333;25281;-35
2022/10/11 00:34:16;;;;;;;9.90;5.90;;;;;;;9.56;100.00;99712.11;100494;1334;23118;-36
2022/10/11 00:36:41;;;;;;;9.60;7.00;;;;;;;9.62;100.00;99715.36;100591;1339;24499;-36
2022/10/11 00:39:07;;;;;;;8.50;6.30;;;;;;;9.64;100.00;99711.77;100577;1341;23123;-35
2022/10/11 00:41:32;;;;;;;13.50;7.00;;;;;;;9.62;100.00;99709.14;100603;1340;24166;-36
2022/10/11 00:44:05;;;;;;;13.40;6.60;;;;;;;9.60;100.00;99710.08;100537;1341;24493;-36
2022/10/11 00:46:31;;;;;;;5.80;3.60;;;;;;;9.63;100.00;99705.60;100599;1333;22518;-33
2022/10/11 00:49:00;;;;;;;9.20;7.50;;;;;;;9.65;100.00;99704.02;100571;1341;22888;-33
2022/10/11 00:51:33;;;;;;;6.50;5.50;;;;;;;9.67;100.00;99706.33;100568;1340;24377;-36
2022/10/11 00:53:58;;;;;;;19.60;5.70;;;;;;;9.70;100.00;99708.65;100582;1341;22579;-36
2022/10/11 00:56:26;;;;;;;5.70;5.00;;;;;;;9.70;100.00;99708.55;100527;1340;24349;-32
2022/10/11 00:58:52;;;;;;;7.80;6.00;;;;;;;9.65;100.00;99707.33;100508;1333;22748;-33
2022/10/11 01:01:17;;;;;;;10.40;5.50;;;;;;;9.63;100.00;99707.41;100582;1340;23087;-32
2022/10/11 01:03:43;;;;;;;9.70;4.40;;;;;;;9.64;100.00;99708.31;100579;1341;23218;-32
2022/10/11 01:06:09;;;;;;;9.00;5.40;;;;;;;9.66;100.00;99712.20;100595;1330;22979;-33
2022/10/11 01:08:34;;;;;;;5.80;4.40;;;;;;;9.65;100.00;99715.70;100562;1323;24399;-33
2022/10/11 01:11:00;;;;;;;7.00;4.20;;;;;;;9.64;100.00;99712.66;100608;1341;23090;-36
2022/10/11 01:13:35;;;;;;;10.90;7.90;;;;;;;9.63;100.00;99713.98;100603;1340;22738;-32
2022/10/11 01:16:07;;;;;;;6.30;5.50;;;;;;;9.64;100.00;99714.65;100581;1341;24406;-35
2022/10/11 01:18:42;;;;;;;7.80;6.90;;;;;;;9.66;100.00;99715.06;100579;1333;22632;-35
2022/10/11 01:21:13;;;;;;;9.50;6.20;;;;;;;9.65;100.00;99715.87;100571;1341;24213;-32
2022/10/11 01:23:47;;;;;;;8.10;5.40;;;;;;;9.65;100.00;99713.36;100560;1339;24373;-32
2022/10/11 01:26:23;;;;;;;8.00;6.20;;;;;;;9.66;100.00;99709.02;100601;1341;22741;-38
2022/10/11 01:28:51;;;;;;;11.90;6.20;;;;;;;9.67;100.00;99711.90;100638;1334;24360;-33
2022/10/11 01:31:25;;;;;;;12.10;5.60;;;;;;;9.67;100.00;99715.86;100594;1333;23119;-36
2022/10/11 01:33:54;;;;;;;15.50;6.90;;;;;;;9.67;100.00;99714.58;100641;1340;24383;-33
2022/10/11 01:36:26;;;;;;;9.10;5.70;;;;;;;9.64;100.00;99720.35;100621;1341;24309;-37
2022/10/11 01:38:56;;;;;;;6.50;5.90;;;;;;;9.68;100.00;99720.86;100593;1340;22748;-33
2022/10/11 01:41:24;;;;;;;8.60;6.20;;;;;;;9.68;100.00;99723.73;100577;1334;24260;-35
2022/10/11 01:43:54;;;;;;;8.00;7.20;;;;;;;9.59;100.00;99721.96;100558;1334;25348;-37
2022/10/11 01:46:20;;;;;;;11.20;6.70;;;;;;;9.56;100.00;99720.35;100578;1341;23326;-42
2022/10/11 01:48:48;;;;;;;8.90;5.40;;;;;;;9.55;100.00;99723.54;100570;1341;23227;-32
2022/10/11 01:51:13;;;;;;;9.80;6.60;;;;;;;9.56;100.00;99723.02;100585;1334;23036;-36
2022/10/11 01:53:42;;;;;;;10.30;7.50;;;;;;;9.55;100.00;99721.37;100548;1341;24562;-33
2022/10/11 01:56:18;;;;;;;11.90;4.90;;;;;;;9.55;100.00;99721.90;100448;1339;23114;-37
2022/10/11 01:58:52;;;;;;;8.50;6.30;;;;;;;9.63;100.00;99726.48;100506;1341;22744;-33
2022/10/11 02:01:25;;;;;;;9.60;6.70;;;;;;;9.67;100.00;99728.56;100627;1340;22528;-36
2022/10/11 02:03:56;;;;;;;11.50;7.10;;;;;;;9.73;100.00;99735.34;100525;1339;24501;-36
2022/10/11 02:06:45;;;;;;;8.70;7.20;;;;;;;9.73;100.00;99740.27;100655;1341;24372;-36
2022/10/11 02:09:15;;;;;;;8.90;6.30;;;;;;;9.80;100.00;99748.73;100593;1340;23090;-38
2022/10/11 02:11:40;;;;;;;12.60;7.40;;;;;;;9.73;100.00;99751.93;100511;1340;22717;-36
2022/10/11 02:14:09;;;;;;;11.00;8.20;;;;;;;9.69;100.00;99757.57;100656;1340;23187;-33
2022/10/11 02:16:41;;;;;;;15.20;6.40;;;;;;;9.51;100.00;99755.98;100586;1334;24313;-37
2022/10/11 02:19:06;;;;;;;6.70;4.80;;;;;;;9.42;100.00;99756.33;100221;1341;22764;-36
2022/10/11 02:21:33;;;;;;;9.40;6.60;;;;;;;9.40;100.00;99757.48;100481;1340;23251;-35
2022/10/11 02:24:02;;;;;;;8.90;7.10;;;;;;;9.40;100.00;99757.33;100575;1341;22523;-36
2022/10/11 02:26:29;;;;;;;8.90;5.60;;;;;;;9.37;100.00;99760.13;100604;1333;24530;-37
2022/10/11 02:28:55;;;;;;;10.30;6.80;;;;;;;9.34;100.00;99765.11;100559;1339;23092;-31
2022/10/11 02:31:20;;;;;;;13.10;9.40;;;;;;;9.40;100.00;99763.60;100578;1340;23207;-33
2022/10/11 02:33:52;;;;;;;17.10;10.40;;;;;;;9.38;100.00;99773.96;100646;1333;25967;-36
2022/10/11 02:36:24;;;;;;;8.20;6.80;;;;;;;9.41;100.00;99773.66;100675;1341;25443;-36
2022/10/11 02:38:52;;;;;;;16.80;10.90;;;;;;;9.44;100.00;99778.84;100604;1341;23086;-32
2022/10/11 02:41:24;;;;;;;11.00;7.60;;;;;;;9.36;100.00;99784.69;100534;1341;24444;-33
2022/10/11 02:43:56;;;;;;;8.60;7.40;;;;;;;9.30;100.00;99785.01;100554;1340;23227;-33
2022/10/11 02:46:22;;;;;;;17.40;8.80;;;;;;;9.30;100.00;99788.39;100615;1339;22752;-32
2022/10/11 02:48:48;;;;;;;12.00;7.00;;;;;;;9.29;100.00;99791.28;100606;1334;25739;-36
2022/10/11 02:51:13;;;;;;;24.30;9.10;;;;;;;9.24;100.00;99796.38;100605;1341;22903;-36
2022/10/11 02:53:39;;;;;;;9.80;7.40;;;;;;;9.17;100.00;99800.46;100573;1340;23108;-31
2022/10/11 02:56:04;;;;;;;10.10;6.40;;;;;;;9.18;100.00;99804.89;100577;1340;22864;-32
2022/10/11 02:58:30;;;;;;;14.40;7.70;;;;;;;9.26;100.00;99810.13;100503;1339;24411;-36
2022/10/11 03:00:55;;;;;;;;;;;;;;;9.29;100.00;99810.73;100604;1340;23116;-33
2022/10/11 03:03:21;;;;;;;10.30;7.90;;;;;;;9.35;100.00;99821.05;100568;1341;22894;-33
2022/10/11 03:05:47;;;;;;;12.40;9.00;;;;;;;9.39;100.00;99827.25;100550;1341;24394;-33
2022/10/11 03:08:13;;;;;;;15.20;8.40;;;;;;;9.45;100.00;99822.06;100571;1324;25683;-36
2022/10/11 03:10:39;;;;;;;8.40;5.80;;;;;;;9.47;100.00;99824.52;100585;1339;24652;-36
2022/10/11 03:13:05;;;;;;;14.40;8.30;;;;;;;9.52;100.00;99827.36;100572;1340;22752;-35
2022/10/11 03:15:30;;;;;;;9.60;7.50;;;;;;;9.58;100.00;99830.40;100565;1341;24485;-36
2022/10/11 03:17:56;;;;;;;10.30;7.50;;;;;;;9.64;100.00;99839.95;100542;1340;24376;-36
2022/10/11 03:20:22;;;;;;;11.70;7.20;;;;;;;9.67;100.00;99841.20;100588;1336;23093;-36
2022/10/11 03:22:47;;;;;;;8.80;7.10;;;;;;;9.68;100.00;99840.31;100535;1334;23234;-33
2022/10/11 03:25:13;;;;;;;17.00;7.40;;;;;;;9.70;100.00;99843.98;100610;1341;23227;-36
2022/10/11 03:27:38;;;;;;;;;;;;;;;9.79;100.00;99843.52;100552;1340;22762;-36
2022/10/11 03:30:05;;;;;;;10.10;6.20;;;;;;;9.86;100.00;99849.11;100537;1333;23057;-36
2022/10/11 03:32:30;;;;;;;14.20;7.50;;;;;;;9.89;100.00;99854.67;100634;1334;22848;-36
2022/10/11 03:34:56;;;;;;;10.90;5.50;;;;;;;9.93;100.00;99849.98;100602;1340;24359;-33
2022/10/11 03:37:22;;;;;;;9.90;8.00;;;;;;;9.93;100.00;99849.03;100540;1340;25506;-33
2022/10/11 03:39:47;;;;;;;5.80;4.60;;;;;;;9.94;100.00;99849.79;100551;1333;24378;-33
2022/10/11 03:42:13;;;;;;;9.20;7.20;;;;;;;9.92;100.00;99849.15;100487;1341;24481;-32
2022/10/11 03:44:40;;;;;;;9.90;4.80;;;;;;;9.92;100.00;99848.60;100572;1333;23057;-33
2022/10/11 03:47:06;;;;;;;11.90;7.10;;;;;;;9.88;100.00;99849.81;100537;1341;22927;-33
2022/10/11 03:49:31;;;;;;;7.30;4.70;;;;;;;9.84;100.00;99853.86;100615;1333;24402;-37
2022/10/11 03:51:56;;;;;;;13.00;5.50;;;;;;;9.86;100.00;99852.34;100580;1341;22745;-33
2022/10/11 03:54:22;;;;;;;6.20;4.30;;;;;;;9.79;100.00;99850.80;100568;1334;24350;-36
2022/10/11 03:56:48;;;;;;;7.60;3.50;;;;;;;9.74;100.00;99854.05;100587;1340;24095;-36
2022/10/11 03:59:13;;;;;;;6.50;4.60;;;;;;;9.66;100.00;99855.73;100571;1341;25236;-39
2022/10/11 04:01:39;;;;;;;7.90;4.40;;;;;;;9.58;100.00;99861.35;100569;1333;24362;-37
2022/10/11 04:04:05;;;;;;;27.40;7.00;;;;;;;9.53;100.00;99870.66;100529;1336;24383;-32
2022/10/11 04:06:30;;;;;;;6.90;5.70;;;;;;;9.55;100.00;99869.91;100546;1333;23106;-37
2022/10/11 04:08:56;;;;;;;8.70;5.30;;;;;;;9.56;100.00;99874.46;100545;1341;23024;-36
2022/10/11 04:11:22;;;;;;;12.70;6.90;;;;;;;9.52;100.00;99874.39;100544;1330;22725;-39
2022/10/11 04:13:47;;;;;;;9.60;7.20;;;;;;;9.43;100.00;99871.01;100611;1331;22867;-36
2022/10/11 04:16:13;;;;;;;13.90;7.60;;;;;;;9.40;100.00;99879.23;100602;1340;24387;-33
2022/10/11 04:18:38;;;;;;;11.50;6.70;;;;;;;9.29;100.00;99881.59;100555;1340;23186;-33
2022/10/11 04:21:04;;;;;;;13.20;5.10;;;;;;;9.21;100.00;99892.20;100584;1334;24383;-33
2022/10/11 04:23:30;;;;;;;22.60;7.60;;;;;;;9.18;100.00;99890.31;100561;1340;23203;-33
2022/10/11 04:25:56;;;;;;;10.50;7.10;;;;;;;9.08;100.00;99892.84;100456;1341;22780;-33
2022/10/11 04:28:22;;;;;;;7.20;4.40;;;;;;;8.98;100.00;99896.64;100579;1340;23058;-34
2022/10/11 04:30:47;;;;;;;10.20;7.50;;;;;;;9.04;100.00;99899.36;100626;1334;22520;-34
2022/10/11 04:33:13;;;;;;;10.00;6.90;;;;;;;8.95;100.00;99902.91;100551;1332;22764;-34
2022/10/11 04:35:39;;;;;;;8.90;6.70;;;;;;;8.92;100.00;99905.04;100614;1340;24357;-35
2022/10/11 04:38:04;;;;;;;16.60;5.00;;;;;;;8.90;100.00;99906.65;100561;1341;23351;-36
2022/10/11 04:40:30;;;;;;;13.50;8.10;;;;;;;8.86;100.00;99911.02;100541;1340;23107;-37
2022/10/11 04:42:55;;;;;;;26.10;7.70;;;;;;;8.84;100.00;99918.02;100539;1333;23138;-37
2022/10/11 04:45:21;;;;;;;15.60;9.30;;;;;;;8.83;100.00;99921.70;100563;1340;24759;-34
2022/10/11 04:47:47;;;;;;;15.30;5.40;;;;;;;8.85;100.00;99929.66;100638;1333;24375;-36
2022/10/11 04:50:13;;;;;;;9.60;6.60;;;;;;;8.89;100.00;99933.91;100662;1339;23090;-33
2022/10/11 04:52:39;;;;;;;10.70;7.70;;;;;;;8.91;100.00;99935.54;100603;1333;22933;-36
2022/10/11 04:55:05;;;;;;;16.50;8.90;;;;;;;8.95;100.00;99939.19;100466;1339;23231;-36
2022/10/11 04:57:30;;;;;;;8.10;6.60;;;;;;;8.95;100.00;99942.98;100514;1341;24485;-33
2022/10/11 04:59:56;;;;;;;8.10;6.30;;;;;;;9.03;100.00;99948.29;100602;1339;22781;-33
2022/10/11 05:02:21;;;;;;;12.30;8.20;;;;;;;8.99;100.00;99955.14;100552;1334;24454;-40
2022/10/11 05:04:46;;;;;;;16.50;7.80;;;;;;;8.98;100.00;99955.84;100544;1339;22765;-36
2022/10/11 05:07:12;;;;;;;10.70;6.70;;;;;;;8.93;100.00;99961.15;100564;1341;23226;-35
2022/10/11 05:09:38;;;;;;;13.60;9.80;;;;;;;8.92;100.00;99966.30;100569;1336;23519;-32
2022/10/11 05:12:04;;;;;;;10.40;8.20;;;;;;;8.90;100.00;99970.46;100561;1323;23239;-37
2022/10/11 05:14:29;;;;;;;21.20;8.50;;;;;;;8.82;100.00;99977.52;100690;1340;23090;-36
2022/10/11 05:16:55;;;;;;;7.30;6.50;;;;;;;8.80;100.00;99986.37;100483;1341;22831;-36
2022/10/11 05:19:20;;;;;;;12.30;5.20;;;;;;;8.76;100.00;99989.65;100619;1334;23117;-37
2022/10/11 05:21:46;;;;;;;10.10;6.80;;;;;;;8.69;100.00;99996.92;100592;1333;24314;-36
2022/10/11 05:24:11;;;;;;;8.60;4.60;;;;;;;8.68;100.00;99995.71;100530;1333;24360;-37
2022/10/11 05:26:37;;;;;;;12.10;8.00;;;;;;;8.71;100.00;99999.64;100588;1340;24560;-37
2022/10/11 05:29:02;;;;;;;11.70;7.00;;;;;;;8.68;100.00;100005.73;100525;1339;22704;-33
2022/10/11 05:31:27;;;;;;;13.40;7.80;;;;;;;8.66;100.00;100009.92;100438;1334;23226;-36
2022/10/11 05:33:53;;;;;;;11.30;8.30;;;;;;;8.59;100.00;100018.29;100564;1340;24336;-36
2022/10/11 05:36:19;;;;;;;11.00;7.90;;;;;;;8.61;100.00;100014.67;100571;1333;22888;-33
2022/10/11 05:38:45;;;;;;;15.20;8.70;;;;;;;8.64;100.00;100018.36;100600;1339;23070;-36
2022/10/11 05:41:12;;;;;;;24.00;7.30;;;;;;;8.59;100.00;100023.38;100547;1334;25264;-33
2022/10/11 05:43:38;;;;;;;20.60;9.30;;;;;;;8.59;100.00;100024.75;100538;1341;24421;-36
2022/10/11 05:46:04;;;;;;;14.20;8.80;;;;;;;8.59;100.00;100026.52;100513;1340;23103;-36
2022/10/11 05:48:29;;;;;;;14.50;5.60;;;;;;;8.57;100.00;100028.40;100553;1324;22543;-35
2022/10/11 05:50:59;;;;;;;3.30;2.10;;;;;;;8.59;100.00;100038.34;100560;1341;25615;-36
2022/10/11 05:53:25;;;;;;;9.30;6.20;;;;;;;8.57;100.00;100039.60;100671;1332;22668;-32
2022/10/11 05:55:50;;;;;;;10.50;7.30;;;;;;;8.56;100.00;100049.86;100624;1341;23347;-32
2022/10/11 05:58:17;;;;;;;37.40;9.90;;;;;;;8.56;100.00;100057.61;100537;1332;23209;-33
2022/10/11 06:00:43;;;;;;;11.10;7.80;;;;;;;8.54;100.00;100060.09;100632;1333;22517;-36
2022/10/11 06:03:09;;;;;;;10.50;7.60;;;;;;;8.56;100.00;100067.89;100556;1340;22705;-33
2022/10/11 06:05:35;;;;;;;13.20;8.30;;;;;;;8.55;100.00;100073.04;100562;1333;23237;-32
2022/10/11 06:08:02;;;;;;;13.50;9.20;;;;;;;8.57;100.00;100076.39;100557;1332;25347;-33
2022/10/11 06:10:27;;;;;;;8.50;5.90;;;;;;;8.61;100.00;100087.16;100566;1332;22749;-32
2022/10/11 06:12:53;;;;;;;14.10;8.90;;;;;;;8.66;100.00;100098.05;100521;1333;24336;-33
2022/10/11 06:15:18;;;;;;;13.20;9.60;;;;;;;8.72;100.00;100103.48;100529;1341;22602;-36
2022/10/11 06:17:45;;;;;;;10.50;6.80;;;;;;;8.75;100.00;100110.00;100612;1340;22677;-34
2022/10/11 06:20:11;;;;;;;23.10;9.90;;;;;;;8.84;100.00;100114.29;100594;1316;22893;-32
2022/10/11 06:22:37;;;;;;;13.90;8.30;;;;;;;8.94;100.00;100122.19;100552;1341;22877;-33
2022/10/11 06:25:03;;;;;;;22.70;12.60;;;;;;;9.02;100.00;100121.28;100538;1341;23201;-36
2022/10/11 06:27:29;;;;;;;24.30;9.10;;;;;;;9.10;100.00;100126.39;100542;1339;22502;-34
2022/10/11 06:29:55;;;;;;;16.50;8.00;;;;;;;9.20;100.00;100129.06;100574;1340;23091;-33
2022/10/11 06:32:20;;;;;;;9.50;7.80;;;;;;;9.32;100.00;100127.53;100511;1326;23240;-34
2022/10/11 06:34:46;;;;;;;17.10;7.90;;;;;;;9.43;100.00;100125.86;100613;1333;23117;-34
2022/10/11 06:37:12;;;;;;;11.10;8.60;;;;;;;9.50;100.00;100126.31;100557;1338;22883;-37
2022/10/11 06:39:37;;;;;;;8.20;5.90;;;;;;;9.70;100.00;100132.33;100500;1341;24450;-34
2022/10/11 06:42:03;;;;;;;14.10;9.40;;;;;;;9.72;100.00;100134.07;100605;1333;22881;-34
2022/10/11 06:44:28;;;;;;;7.90;7.10;;;;;;;9.81;100.00;100129.07;100568;1333;23235;-37
2022/10/11 06:46:54;;;;;;;10.10;6.00;;;;;;;9.77;100.00;100129.79;100560;1341;22716;-37
2022/10/11 06:49:20;;;;;;;13.40;7.20;;;;;;;9.78;100.00;100130.29;100498;1341;22744;-37
2022/10/11 06:51:46;;;;;;;11.00;7.20;;;;;;;9.80;100.00;100131.86;100525;1341;25397;-39
2022/10/11 06:54:11;;;;;;;9.40;7.40;;;;;;;9.79;100.00;100133.73;100566;1333;24328;-33
2022/10/11 06:56:37;;;;;;;9.40;7.00;;;;;;;9.87;100.00;100132.50;100557;1326;25261;-33
2022/10/11 06:59:03;;;;;;;11.70;7.30;;;;;;;9.97;100.00;100134.01;100567;1334;24498;-33
2022/10/11 07:01:29;;;;;;;12.60;8.50;;;;;;;10.02;100.00;100129.35;100568;1341;24919;-36
2022/10/11 07:03:55;;;;;;;13.20;8.60;;;;;;;10.15;100.00;100130.38;100514;1339;24349;-33
2022/10/11 07:06:22;;;;;;;8.90;7.50;;;;;;;10.25;100.00;100129.23;100534;1339;22761;-37
2022/10/11 07:08:48;;;;;;;11.20;7.40;;;;;;;10.31;100.00;100126.64;100602;1340;22502;-36
2022/10/11 07:11:16;;;;;;;13.00;6.80;;;;;;;10.31;100.00;100126.75;100633;1333;22752;-34
2022/10/11 07:13:42;;;;;;;12.80;6.70;;;;;;;10.36;100.00;100127.99;100627;1340;22518;-32
2022/10/11 07:16:09;;;;;;;15.50;6.00;;;;;;;10.39;100.00;100124.61;100527;1329;23225;-33
2022/10/11 07:18:34;;;;;;;8.90;7.10;;;;;;;10.39;100.00;100123.20;100552;1334;22863;-36
2022/10/11 07:21:02;;;;;;;7.20;5.80;;;;;;;10.48;100.00;100135.16;100556;1332;22775;-33
2022/10/11 07:23:28;;;;;;;6.70;3.50;;;;;;;10.57;100.00;100132.23;100585;1341;22540;-36
2022/10/11 07:25:54;;;;;;;11.20;5.10;;;;;;;10.59;100.00;100127.50;100566;1332;24383;-33
2022/10/11 07:28:20;;;;;;;14.30;6.20;;;;;;;10.59;100.00;100128.74;100550;1341;22542;-36
2022/10/11 07:30:46;;;;;;;7.00;6.00;;;;;;;10.50;100.00;100126.05;100520;1341;22782;-32
2022/10/11 07:33:12;;;;;;;8.40;5.50;;;;;;;10.54;100.00;100124.86;100543;1340;24383;-36
2022/10/11 07:35:37;;;;;;;6.40;5.10;;;;;;;10.67;100.00;100124.18;100663;1333;22778;-37
2022/10/11 07:38:04;;;;;;;4.00;3.50;;;;;;;10.77;100.00;100119.69;100541;1341;23226;-37
2022/10/11 07:40:29;;;;;;;9.80;6.00;;;;;;;10.86;100.00;100118.60;100555;1341;22535;-33
2022/10/11 07:42:56;;;;;;;11.10;3.20;;;;;;;10.89;100.00;100127.70;100591;1339;23064;-37
2022/10/11 07:45:24;;;;;;;8.90;4.60;;;;;;;10.97;100.00;100131.56;100618;1341;22873;-37
2022/10/11 07:47:49;;;;;;;19.00;6.40;;;;;;;11.03;100.00;100131.79;100468;1341;24376;-36
2022/10/11 07:50:17;;;;;;;10.70;5.90;;;;;;;11.06;100.00;100130.39;100640;1333;22752;-34
2022/10/11 07:52:43;;;;;;;5.30;4.60;;;;;;;11.06;100.00;100135.35;100524;1339;22936;-32
2022/10/11 07:55:09;;;;;;;5.00;4.40;;;;;;;11.12;100.00;100138.09;100609;1332;23113;-35
2022/10/11 07:57:34;;;;;;;9.60;4.50;;;;;;;11.22;100.00;100141.52;100569;1334;22543;-33
2022/10/11 08:00:00;;;;;;;10.00;3.90;;;;;;;11.26;100.00;100141.13;100597;1340;24369;-33
2022/10/11 08:02:26;;;;;;;12.80;4.50;;;;;;;11.26;100.00;100140.41;100567;1339;22883;-34
2022/10/11 08:04:51;;;;;;;5.50;2.80;;;;;;;11.24;100.00;100142.42;100563;1340;22568;-38
2022/10/11 08:07:17;;;;;;;3.80;2.70;;;;;;;11.25;100.00;100148.77;100567;1333;22900;-37
2022/10/11 08:09:42;;;;;;;5.70;4.10;;;;;;;11.24;100.00;100148.09;100441;1334;22765;-38
2022/10/11 08:12:08;;;;;;;4.70;3.50;;;;;;;11.32;100.00;100149.29;100532;1341;24383;-32
2022/10/11 08:14:34;;;;;;;4.00;3.20;;;;;;;11.32;100.00;100149.84;100573;1341;23015;-35
2022/10/11 08:17:01;;;;;;;8.00;3.20;;;;;;;11.34;100.00;100155.87;100634;1333;23189;-32
2022/10/11 08:19:27;;;;;;;8.70;3.20;;;;;;;11.42;99.91;100152.77;100522;1334;24285;-35
2022/10/11 08:21:52;;;;;;;23.50;2.30;;;;;;;11.56;99.85;100152.55;100652;1333;22758;-32
2022/10/11 08:24:19;;;;;;;2.40;1.70;;;;;;;11.82;98.42;100148.39;100535;1333;24411;-36
2022/10/11 08:26:46;;;;;;;8.20;3.70;;;;;;;12.12;95.46;100152.97;100624;1334;22889;-35
2022/10/11 08:29:13;;;;;;;7.90;3.50;;;;;;;12.09;94.76;100154.31;100524;1333;22765;-34
2022/10/11 08:31:39;;;;;;;1.90;1.50;;;;;;;12.18;93.95;100154.95;100626;1333;23541;-34
2022/10/11 08:34:04;;;;;;;;;;;;;;;12.00;93.15;100158.88;100601;1341;22754;-34
2022/10/11 08:36:30;;;;;;;5.50;2.70;;;;;;;11.86;92.36;100159.47;100440;1341;23120;-40
2022/10/11 08:38:56;;;;;;;2.90;1.40;;;;;;;11.83;92.84;100162.27;100493;1341;22739;-34
2022/10/11 08:41:42;;;;;;;3.70;1.80;;;;;;;11.89;92.27;100157.56;100494;1333;22891;-37
2022/10/11 08:44:12;;;;;;;9.30;2.50;;;;;;;11.82;90.55;100160.02;100550;1341;22641;-33
2022/10/11 08:46:37;;;;;;;7.80;3.20;;;;;;;11.85;91.10;100165.06;100632;1337;23106;-34
2022/10/11 08:49:03;;;;;;;11.90;3.80;;;;;;;12.02;88.99;100169.23;100579;1339;24480;-34
2022/10/11 08:51:32;;;;;;;9.30;3.20;;;;;;;12.15;86.56;100169.08;100531;1334;22944;-37
2022/10/11 08:54:03;;;;;;;9.80;3.70;;;;;;;12.14;85.49;100173.58;100610;1339;24500;-38
2022/10/11 08:56:28;;;;;;;4.00;1.40;;;;;;;12.23;85.97;100175.98;100574;1341;23256;-38
2022/10/11 08:58:59;;;;;;;6.70;1.60;;;;;;;12.50;84.96;100180.77;100569;1339;22732;-33
2022/10/11 09:01:26;;;;;;;12.90;3.40;;;;;;;12.70;82.48;100181.33;100572;1341;22649;-35
2022/10/11 09:03:51;;;;;;;19.90;2.50;;;;;;;12.55;80.89;100176.77;100567;1339;22509;-35
2022/10/11 09:06:23;;;;;;;5.40;1.80;;;;;;;13.09;80.91;100184.04;100566;1341;23221;-38
2022/10/11 09:08:56;;;;;;;3.70;1.20;;;;;;;12.91;80.20;100187.59;100546;1341;24584;-37
2022/10/11 09:11:34;;;;;;;8.00;1.20;;;;;;;12.90;80.32;100191.91;100620;1333;23033;-36
2022/10/11 09:14:06;;;;;;;7.70;1.00;;;;;;;13.11;80.30;100195.21;100560;1341;23095;-34
2022/10/11 09:16:39;;;;;;;7.70;0.80;;;;;;;13.29;78.31;100196.94;100606;1341;25305;-36
2022/10/11 09:19:28;;;;;;;2.70;1.30;;;;;;;13.42;77.41;100199.20;100557;1340;22509;-34
2022/10/11 09:22:00;;;;;;;3.30;1.10;;;;;;;13.64;75.48;100197.38;100557;1329;23136;-39
2022/10/11 09:24:31;;;;;;;5.60;2.10;;;;;;;13.87;73.99;100198.15;100611;1341;24364;-35
2022/10/11 09:27:00;;;;;;;10.70;2.00;;;;;;;13.96;75.62;100194.63;100602;1340;25241;-35
2022/10/11 09:29:50;;;;;;;5.70;0.90;;;;;;;14.13;73.81;100202.48;100577;1339;22639;-34
2022/10/11 09:32:19;;;;;;;1.10;0.70;;;;;;;14.02;71.99;100208.93;100536;1341;24594;-35
2022/10/11 09:34:45;;;;;;;3.90;1.10;;;;;;;13.99;70.63;100212.25;100600;1333;22861;-35
2022/10/11 09:37:14;;;;;;;2.90;1.00;;;;;;;14.33;70.01;100208.45;100573;1340;22863;-38
2022/10/11 09:39:44;;;;;;;2.70;1.10;;;;;;;14.46;69.82;100210.09;100596;1341;22762;-34
2022/10/11 09:42:11;;;;;;;5.00;1.00;;;;;;;14.16;70.30;100205.58;100500;1324;22897;-34
2022/10/11 09:44:39;;;;;;;5.30;0.90;;;;;;;13.84;70.15;100217.49;100523;1340;22860;-34
2022/10/11 09:47:05;;;;;;;1.20;0.70;;;;;;;13.81;71.20;100219.13;100559;1341;24299;-37
2022/10/11 09:49:36;;;;;;;7.80;1.00;;;;;;;13.69;70.98;100219.14;100553;1340;23250;-34
2022/10/11 09:52:03;;;;;;;1.50;0.60;;;;;;;13.65;71.59;100217.98;100609;1341;24387;-40
2022/10/11 09:54:35;;;;;;;4.20;0.80;;;;;;;13.97;71.37;100212.84;100527;1341;22500;-37
2022/10/11 09:57:01;;;;;;;4.80;0.40;;;;;;;14.20;68.17;100212.72;100626;1340;23028;-35
2022/10/11 09:59:29;;;;;;;5.10;1.40;;;;;;;13.96;68.15;100214.41;100448;1341;22899;-36
2022/10/11 10:02:02;;;;;;;2.60;1.60;;;;;;;14.34;67.22;100211.98;100649;1339;25289;-34
2022/10/11 10:04:27;;;;;;;2.00;0.70;;;;;;;14.38;66.11;100219.41;100570;1339;24542;-34
2022/10/11 10:07:08;;;;;;;12.80;0.90;;;;;;;14.49;66.02;100218.73;100633;1332;23056;-35
2022/10/11 10:09:33;;;;;;;5.30;1.00;;;;;;;14.56;65.98;100225.00;100569;1333;22742;-34
2022/10/11 10:12:00;;;;;;;6.80;0.90;;;;;;;14.57;65.73;100229.64;100412;1341;23020;-37
2022/10/11 10:14:27;;;;;;;6.20;1.40;;;;;;;14.82;64.77;100227.33;100601;1333;22748;-35
2022/10/11 10:16:57;;;;;;;4.70;3.10;;;;;;;15.14;64.63;100223.84;100220;1337;491456;-35
2022/10/11 10:19:24;;;;;;;1.60;0.70;;;;;;;14.90;63.67;100227.84;100560;1339;22510;-34
2022/10/11 10:21:51;;;;;;;3.50;1.00;;;;;;;14.53;63.11;100227.09;100455;1342;22573;-34
2022/10/11 10:24:24;;;;;;;2.60;0.60;;;;;;;14.29;63.62;100227.64;100541;1334;22752;-34
2022/10/11 10:27:04;;;;;;;2.40;1.60;;;;;;;14.77;63.60;100225.60;100560;1340;22511;-36
2022/10/11 10:29:30;;;;;;;19.90;2.20;;;;;;;15.08;61.22;100226.77;100570;1334;23222;-33
2022/10/11 10:31:56;;;;;;;8.30;2.90;;;;;;;15.28;60.07;100225.11;100497;1340;23101;-36
2022/10/11 10:34:27;;;;;;;6.60;1.70;;;;;;;15.13;60.54;100227.68;100536;1340;22762;-33
2022/10/11 10:36:54;;;;;;;3.00;1.20;;;;;;;15.26;59.20;100229.20;100555;1334;22888;-33
2022/10/11 10:39:41;;;;;;;3.70;1.10;;;;;;;15.39;58.27;100234.12;100643;1334;22762;-34
2022/10/11 10:42:11;;;;;;;9.20;5.40;;;;;;;15.58;57.76;100225.26;100549;1334;25390;-33
2022/10/11 10:44:37;;;;;;;6.40;0.90;;;;;;;15.30;56.03;100235.12;100618;1335;23115;-34
2022/10/11 10:47:08;;;;;;;5.20;1.10;;;;;;;15.53;56.77;100233.55;100526;1339;22751;-37
2022/10/11 10:49:41;;;;;;;5.80;0.70;;;;;;;15.73;55.80;100230.89;100672;1340;22719;-36
2022/10/11 10:52:14;;;;;;;5.70;4.30;;;;;;;15.91;55.52;100233.11;100618;1333;22973;-33
2022/10/11 10:54:44;;;;;;;2.70;1.10;;;;;;;15.90;56.25;100227.67;100607;1333;22521;-33
2022/10/11 10:57:16;;;;;;;3.60;1.60;;;;;;;15.89;55.92;100229.50;100490;1335;22575;-34
2022/10/11 10:59:49;;;;;;;7.20;1.50;;;;;;;16.02;54.10;100233.52;100533;1341;22894;-34
2022/10/11 11:02:19;;;;;;;2.10;1.80;;;;;;;15.96;55.12;100229.60;100583;1340;25417;-35
2022/10/11 11:04:50;;;;;;;1.60;0.50;;;;;;;15.77;54.53;100235.55;100562;1339;24584;-36
2022/10/11 11:07:39;;;;;;;5.10;1.40;;;;;;;15.44;55.48;100233.08;100589;1334;23131;-34
2022/10/11 11:10:10;;;;;;;2.80;1.10;;;;;;;15.85;53.38;100232.34;100563;1340;22779;-36
2022/10/11 11:12:45;;;;;;;4.00;0.90;;;;;;;15.76;54.30;100234.94;100563;1339;22920;-34
2022/10/11 11:15:13;;;;;;;1.30;0.80;;;;;;;15.84;53.84;100233.28;100594;1341;22612;-34
2022/10/11 11:17:45;;;;;;;2.60;1.40;;;;;;;15.98;53.51;100229.40;100549;1334;23022;-37